createdAt,value
2017-08-15T00:00:25.214Z,22.73
2017-08-15T00:01:35.571Z,22.78
2017-08-15T00:02:45.931Z,22.7
2017-08-15T00:03:56.267Z,22.61
2017-08-15T00:05:06.651Z,22.67
2017-08-15T00:06:16.681Z,22.66
2017-08-15T00:07:27.039Z,22.66
2017-08-15T00:08:37.394Z,22.55
2017-08-15T00:09:47.735Z,22.51
2017-08-15T00:10:57.514Z,22.48
2017-08-15T00:12:07.549Z,22.49
2017-08-15T00:13:17.897Z,22.46
2017-08-15T00:14:28.235Z,22.45
2017-08-15T00:15:38.577Z,22.44
2017-08-15T00:16:48.970Z,22.46
2017-08-15T00:17:58.690Z,22.46
2017-08-15T00:19:09.035Z,22.34
2017-08-15T00:20:19.063Z,22.41
2017-08-15T00:21:29.126Z,22.41
2017-08-15T00:22:38.888Z,22.31
2017-08-15T00:23:49.230Z,22.27
2017-08-15T00:24:59.571Z,22.27
2017-08-15T00:26:09.937Z,22.33
2017-08-15T00:27:19.970Z,22.18
2017-08-15T00:28:30.063Z,22.27
2017-08-15T00:29:40.421Z,22.31
2017-08-15T00:30:50.783Z,22.23
2017-08-15T00:32:01.120Z,22.24
2017-08-15T00:33:12.058Z,22.24
2017-08-15T00:34:22.456Z,22.24
2017-08-15T00:35:32.816Z,22.16
2017-08-15T00:36:43.147Z,22.2
2017-08-15T00:37:52.865Z,22.14
2017-08-15T00:39:03.205Z,22.11
2017-08-15T00:40:13.607Z,22.18
2017-08-15T00:41:23.976Z,22.09
2017-08-15T00:42:34.320Z,22.07
2017-08-15T00:43:44.657Z,22.08
2017-08-15T00:44:54.996Z,21.97
2017-08-15T00:46:05.411Z,21.96
2017-08-15T00:47:15.138Z,21.94
2017-08-15T00:48:25.167Z,21.97
2017-08-15T00:49:35.201Z,22.02
2017-08-15T00:50:47.594Z,21.94
2017-08-15T00:51:58.002Z,22.02
2017-08-15T00:53:08.374Z,22
2017-08-15T00:54:18.731Z,21.93
2017-08-15T00:55:31.234Z,22.02
2017-08-15T00:56:41.579Z,21.92
2017-08-15T00:57:51.679Z,21.97
2017-08-15T00:59:02.069Z,21.99
2017-08-15T01:00:12.402Z,21.94
2017-08-15T01:01:22.120Z,21.92
2017-08-15T01:02:32.157Z,21.86
2017-08-15T01:03:42.562Z,21.89
2017-08-15T01:04:52.893Z,21.89
2017-08-15T01:06:03.247Z,21.82
2017-08-15T01:07:13.294Z,21.78
2017-08-15T01:08:23.645Z,21.77
2017-08-15T01:09:34.037Z,21.77
2017-08-15T01:10:44.386Z,21.67
2017-08-15T01:11:54.735Z,21.61
2017-08-15T01:13:05.070Z,21.62
2017-08-15T01:14:15.421Z,21.61
2017-08-15T01:15:25.183Z,21.58
2017-08-15T01:16:35.221Z,21.58
2017-08-15T01:17:45.565Z,21.52
2017-08-15T01:18:55.917Z,21.52
2017-08-15T01:20:05.949Z,21.48
2017-08-15T01:21:16.781Z,21.43
2017-08-15T01:22:26.501Z,21.46
2017-08-15T01:23:36.844Z,21.43
2017-08-15T01:24:46.886Z,21.38
2017-08-15T01:26:01.416Z,21.36
2017-08-15T01:27:14.400Z,21.33
2017-08-15T01:28:24.747Z,21.28
2017-08-15T01:29:35.090Z,21.21
2017-08-15T01:30:45.118Z,21.23
2017-08-15T01:31:55.469Z,21.38
2017-08-15T01:33:05.568Z,21.23
2017-08-15T01:34:15.933Z,21.23
2017-08-15T01:35:26.271Z,21.22
2017-08-15T01:36:36.610Z,21.27
2017-08-15T01:37:46.957Z,21.22
2017-08-15T01:38:57.345Z,21.21
2017-08-15T01:40:07.699Z,21.22
2017-08-15T01:41:17.727Z,21.23
2017-08-15T01:42:28.085Z,21.25
2017-08-15T01:43:38.422Z,21.22
2017-08-15T01:44:48.525Z,21.27
2017-08-15T01:45:58.865Z,21.18
2017-08-15T01:47:09.211Z,21.27
2017-08-15T01:48:19.553Z,21.25
2017-08-15T01:49:29.582Z,21.16
2017-08-15T01:50:39.985Z,21.15
2017-08-15T01:51:50.332Z,21.16
2017-08-15T01:53:00.365Z,21.15
2017-08-15T01:54:10.718Z,21.19
2017-08-15T01:55:22.316Z,21.25
2017-08-15T01:56:32.713Z,21.25
2017-08-15T01:57:42.761Z,21.22
2017-08-15T01:58:54.573Z,21.18
2017-08-15T02:00:04.908Z,21.18
2017-08-15T02:01:15.261Z,21.15
2017-08-15T02:02:25.338Z,21.15
2017-08-15T02:03:35.389Z,21.22
2017-08-15T02:04:45.427Z,21.18
2017-08-15T02:05:55.772Z,21.21
2017-08-15T02:07:06.120Z,21.21
2017-08-15T02:08:16.531Z,21.12
2017-08-15T02:09:26.577Z,21.06
2017-08-15T02:10:36.912Z,21.11
2017-08-15T02:11:47.246Z,21.12
2017-08-15T02:12:57.599Z,21.09
2017-08-15T02:14:08.040Z,21.03
2017-08-15T02:15:18.085Z,21.06
2017-08-15T02:16:30.502Z,20.98
2017-08-15T02:17:40.852Z,20.98
2017-08-15T02:18:51.208Z,20.96
2017-08-15T02:20:01.295Z,20.94
2017-08-15T02:21:11.336Z,20.91
2017-08-15T02:22:21.051Z,20.96
2017-08-15T02:23:31.395Z,20.96
2017-08-15T02:24:41.437Z,20.96
2017-08-15T02:25:51.541Z,20.85
2017-08-15T02:27:01.885Z,20.82
2017-08-15T02:28:12.235Z,20.82
2017-08-15T02:29:22.270Z,20.78
2017-08-15T02:30:32.608Z,20.83
2017-08-15T02:31:42.997Z,20.76
2017-08-15T02:32:53.044Z,20.75
2017-08-15T02:34:03.380Z,20.75
2017-08-15T02:35:13.754Z,20.74
2017-08-15T02:36:24.127Z,20.71
2017-08-15T02:37:34.551Z,20.67
2017-08-15T02:38:46.210Z,20.64
2017-08-15T02:39:56.555Z,20.74
2017-08-15T02:41:06.908Z,20.67
2017-08-15T02:42:16.961Z,20.68
2017-08-15T02:43:27.369Z,20.68
2017-08-15T02:44:37.717Z,20.68
2017-08-15T02:45:47.744Z,20.63
2017-08-15T02:46:57.459Z,20.61
2017-08-15T02:48:07.552Z,20.66
2017-08-15T02:49:17.968Z,20.67
2017-08-15T02:50:28.321Z,20.63
2017-08-15T02:51:38.663Z,20.64
2017-08-15T02:52:49.014Z,20.63
2017-08-15T02:53:59.046Z,20.63
2017-08-15T02:55:09.449Z,20.67
2017-08-15T02:56:19.793Z,20.57
2017-08-15T02:57:30.146Z,20.61
2017-08-15T02:58:40.188Z,20.64
2017-08-15T02:59:50.540Z,20.58
2017-08-15T03:01:00.623Z,20.57
2017-08-15T03:33:07.954Z,17.27
2017-08-15T03:34:18.286Z,17.18
2017-08-15T03:35:28.315Z,17.13
2017-08-15T03:36:38.330Z,17.27
2017-08-15T03:37:48.661Z,17.13
2017-08-15T03:38:59.048Z,17.3
2017-08-15T03:40:09.385Z,17.43
2017-08-15T03:41:19.731Z,17.5
2017-08-15T03:42:30.098Z,17.54
2017-08-15T03:43:40.125Z,17.73
2017-08-15T03:44:50.518Z,17.81
2017-08-15T03:46:00.547Z,18.03
2017-08-15T03:47:10.895Z,18.2
2017-08-15T03:48:20.927Z,18.29
2017-08-15T03:49:31.275Z,18.36
2017-08-15T03:50:41.356Z,18.56
2017-08-15T03:51:51.397Z,18.54
2017-08-15T03:53:01.741Z,18.63
2017-08-15T03:54:12.080Z,18.84
2017-08-15T03:55:22.141Z,18.94
2017-08-15T03:56:31.622Z,18.93
2017-08-15T03:57:41.964Z,19.05
2017-08-15T03:58:52.324Z,19.09
2017-08-15T04:00:06.080Z,19.2
2017-08-15T04:01:16.108Z,19.27
2017-08-15T04:02:26.528Z,19.32
2017-08-15T04:03:36.880Z,19.4
2017-08-15T04:04:46.926Z,19.49
2017-08-15T04:05:56.975Z,19.46
2017-08-15T04:07:07.030Z,19.55
2017-08-15T04:08:18.429Z,19.64
2017-08-15T04:09:28.449Z,19.61
2017-08-15T04:10:38.800Z,19.74
2017-08-15T04:11:48.832Z,19.78
2017-08-15T04:12:59.178Z,19.8
2017-08-15T04:14:09.570Z,19.86
2017-08-15T04:15:19.909Z,19.86
2017-08-15T04:16:30.262Z,19.8
2017-08-15T04:17:40.293Z,19.82
2017-08-15T04:18:50.341Z,19.97
2017-08-15T04:20:03.339Z,20
2017-08-15T04:21:13.685Z,20.05
2017-08-15T04:22:26.940Z,20.08
2017-08-15T04:23:36.973Z,20.1
2017-08-15T04:24:47.322Z,20.11
2017-08-15T04:25:57.417Z,20.15
2017-08-15T04:27:07.455Z,20.26
2017-08-15T04:28:17.176Z,20.54
2017-08-15T04:29:27.203Z,20.63
2017-08-15T04:30:37.556Z,20.54
2017-08-15T04:31:47.655Z,20.58
2017-08-15T04:32:57.997Z,20.53
2017-08-15T04:34:08.040Z,20.67
2017-08-15T04:35:18.381Z,20.9
2017-08-15T04:36:28.722Z,20.98
2017-08-15T04:37:39.119Z,21.19
2017-08-15T04:38:49.468Z,21.7
2017-08-15T04:39:59.821Z,22.36
2017-08-15T04:41:10.166Z,22.24
2017-08-15T04:42:20.517Z,22
2017-08-15T04:43:30.611Z,21.83
2017-08-15T04:44:40.963Z,21.77
2017-08-15T04:45:51.004Z,21.61
2017-08-15T04:47:01.337Z,21.59
2017-08-15T04:48:11.685Z,21.68
2017-08-15T04:49:22.100Z,21.78
2017-08-15T04:50:32.127Z,21.86
2017-08-15T04:51:42.482Z,22.05
2017-08-15T04:52:57.440Z,22.59
2017-08-15T04:54:07.807Z,23.55
2017-08-15T04:55:18.187Z,24.78
2017-08-15T04:56:28.527Z,25.49
2017-08-15T04:57:38.868Z,26
2017-08-15T04:58:49.204Z,26.5
2017-08-15T04:59:59.570Z,26.9
2017-08-15T05:01:09.349Z,27.09
2017-08-15T05:02:19.694Z,27.53
2017-08-15T05:03:29.738Z,27.83
2017-08-15T05:04:40.088Z,27.98
2017-08-15T05:05:50.442Z,28.16
2017-08-15T05:07:00.203Z,28.46
2017-08-15T05:08:10.584Z,28.64
2017-08-15T05:09:20.632Z,28.85
2017-08-15T05:10:30.983Z,28.86
2017-08-15T05:11:41.019Z,29.01
2017-08-15T05:12:51.107Z,29.17
2017-08-15T05:14:01.143Z,29.35
2017-08-15T05:15:11.508Z,29.43
2017-08-15T05:16:21.855Z,29.39
2017-08-15T05:17:32.208Z,29.39
2017-08-15T05:18:42.608Z,29.48
2017-08-15T05:19:52.971Z,29.55
2017-08-15T05:21:03.319Z,29.67
2017-08-15T05:22:13.657Z,29.63
2017-08-15T05:23:24.010Z,29.73
2017-08-15T05:24:34.414Z,29.77
2017-08-15T05:25:44.765Z,29.72
2017-08-15T05:26:55.117Z,29.82
2017-08-15T05:28:05.461Z,29.77
2017-08-15T05:29:15.808Z,29.85
2017-08-15T05:30:26.212Z,29.76
2017-08-15T05:31:36.560Z,29.82
2017-08-15T05:32:46.919Z,29.97
2017-08-15T05:33:56.956Z,29.88
2017-08-15T05:35:07.319Z,29.95
2017-08-15T05:36:17.746Z,29.92
2017-08-15T05:37:28.089Z,29.89
2017-08-15T05:38:38.427Z,29.89
2017-08-15T05:39:48.470Z,29.91
2017-08-15T05:40:58.499Z,29.95
2017-08-15T05:42:08.911Z,30.13
2017-08-15T05:43:18.962Z,30.16
2017-08-15T05:44:28.679Z,30.25
2017-08-15T05:45:38.103Z,30.39
2017-08-15T05:46:47.814Z,30.45
2017-08-15T05:47:57.898Z,30.47
2017-08-15T05:49:07.643Z,30.47
2017-08-15T05:50:17.993Z,30.57
2017-08-15T05:51:28.340Z,30.6
2017-08-15T05:52:38.705Z,30.7
2017-08-15T05:53:49.097Z,30.66
2017-08-15T05:54:59.141Z,30.54
2017-08-15T05:56:09.513Z,30.18
2017-08-15T05:57:19.888Z,29.28
2017-08-15T05:58:30.245Z,28.91
2017-08-15T05:59:40.327Z,28.53
2017-08-15T06:00:50.377Z,28.21
2017-08-15T06:02:00.725Z,28.01
2017-08-15T06:03:11.072Z,27.74
2017-08-15T06:04:21.444Z,27.53
2017-08-15T06:05:31.840Z,27.38
2017-08-15T06:06:45.335Z,27.23
2017-08-15T06:07:55.067Z,27.06
2017-08-15T06:09:05.415Z,26.96
2017-08-15T06:10:15.479Z,26.97
2017-08-15T06:11:25.582Z,26.94
2017-08-15T06:12:35.312Z,26.82
2017-08-15T06:13:45.653Z,26.72
2017-08-15T06:14:56.018Z,26.64
2017-08-15T06:16:06.051Z,26.54
2017-08-15T06:17:15.813Z,26.45
2017-08-15T06:18:26.159Z,26.44
2017-08-15T06:19:36.523Z,26.31
2017-08-15T06:20:46.908Z,26.34
2017-08-15T06:21:56.941Z,26.27
2017-08-15T06:23:07.353Z,26.34
2017-08-15T06:24:17.704Z,26.26
2017-08-15T06:25:27.743Z,26.35
2017-08-15T06:26:37.810Z,26.3
2017-08-15T06:27:48.159Z,26.3
2017-08-15T06:28:58.548Z,26.31
2017-08-15T06:30:08.917Z,26.3
2017-08-15T06:31:18.962Z,26.42
2017-08-15T06:32:28.989Z,26.49
2017-08-15T06:33:39.347Z,26.42
2017-08-15T06:34:49.749Z,26.41
2017-08-15T06:36:00.112Z,26.47
2017-08-15T06:37:10.481Z,26.44
2017-08-15T06:38:20.830Z,26.42
2017-08-15T06:39:31.181Z,26.44
2017-08-15T06:40:41.574Z,26.41
2017-08-15T06:41:51.627Z,26.38
2017-08-15T06:43:01.659Z,26.3
2017-08-15T06:44:11.720Z,26.38
2017-08-15T06:45:22.090Z,26.34
2017-08-15T06:46:32.488Z,26.35
2017-08-15T06:47:42.518Z,26.3
2017-08-15T06:48:52.558Z,26.41
2017-08-15T06:50:02.912Z,26.31
2017-08-15T06:51:13.284Z,26.32
2017-08-15T06:52:23.376Z,26.34
2017-08-15T06:53:33.734Z,26.34
2017-08-15T06:54:44.074Z,26.32
2017-08-15T06:55:54.110Z,26.44
2017-08-15T06:57:04.479Z,26.42
2017-08-15T06:58:13.951Z,26.53
2017-08-15T06:59:23.997Z,26.41
2017-08-15T07:00:34.355Z,26.54
2017-08-15T07:01:44.710Z,26.67
2017-08-15T07:02:55.063Z,26.68
2017-08-15T07:04:05.464Z,26.61
2017-08-15T07:05:15.498Z,26.68
2017-08-15T07:06:25.862Z,26.64
2017-08-15T07:07:36.217Z,26.79
2017-08-15T07:08:46.266Z,26.82
2017-08-15T07:09:56.358Z,26.93
2017-08-15T07:11:06.399Z,26.94
2017-08-15T07:12:16.452Z,27
2017-08-15T07:13:26.790Z,27.11
2017-08-15T07:14:37.144Z,27.16
2017-08-15T07:15:51.345Z,27.09
2017-08-15T07:17:01.403Z,27.16
2017-08-15T07:18:11.133Z,27.12
2017-08-15T07:19:21.201Z,27.08
2017-08-15T07:20:31.243Z,27.12
2017-08-15T07:21:41.660Z,27.06
2017-08-15T07:22:51.412Z,27.16
2017-08-15T07:24:08.467Z,27.13
2017-08-15T07:25:18.536Z,27.16
2017-08-15T07:26:27.647Z,27.13
2017-08-15T07:27:37.761Z,27.24
2017-08-15T07:28:48.126Z,27.31
2017-08-15T07:29:57.548Z,27.31
2017-08-15T07:31:07.597Z,27.31
2017-08-15T07:32:20.346Z,27.27
2017-08-15T07:33:30.735Z,27.36
2017-08-15T07:34:43.440Z,27.36
2017-08-15T07:35:53.797Z,27.43
2017-08-15T07:37:03.199Z,27.45
2017-08-15T07:38:13.245Z,27.48
2017-08-15T07:39:23.644Z,27.66
2017-08-15T07:40:33.699Z,27.68
2017-08-15T07:41:43.736Z,27.69
2017-08-15T07:42:53.783Z,27.87
2017-08-15T07:44:04.142Z,27.89
2017-08-15T07:45:14.546Z,28.03
2017-08-15T07:46:24.908Z,28.05
2017-08-15T07:47:34.954Z,28.03
2017-08-15T07:48:45.308Z,28.08
2017-08-15T07:49:55.648Z,28.08
2017-08-15T07:51:06.069Z,28.12
2017-08-15T07:52:16.111Z,28.16
2017-08-15T07:53:28.744Z,28.03
2017-08-15T07:54:39.130Z,28.01
2017-08-15T07:55:49.478Z,28.03
2017-08-15T07:56:59.572Z,28.06
2017-08-15T07:58:09.926Z,28.16
2017-08-15T07:59:20.289Z,28.24
2017-08-15T08:00:30.671Z,28.27
2017-08-15T08:01:41.029Z,28.3
2017-08-15T08:02:51.425Z,28.39
2017-08-15T08:04:01.797Z,28.48
2017-08-15T08:05:12.162Z,28.61
2017-08-15T08:06:21.889Z,28.64
2017-08-15T08:07:32.269Z,28.64
2017-08-15T08:08:42.357Z,28.67
2017-08-15T08:09:52.397Z,28.65
2017-08-15T08:11:05.057Z,28.82
2017-08-15T08:12:15.757Z,28.86
2017-08-15T08:13:26.128Z,28.91
2017-08-15T08:14:36.253Z,28.97
2017-08-15T08:15:46.626Z,28.91
2017-08-15T08:17:01.017Z,29.03
2017-08-15T08:18:11.406Z,29.03
2017-08-15T08:19:21.758Z,29.21
2017-08-15T08:20:31.859Z,29.33
2017-08-15T08:21:42.223Z,29.38
2017-08-15T08:22:55.437Z,29.39
2017-08-15T08:24:05.805Z,29.36
2017-08-15T08:25:15.869Z,29.43
2017-08-15T08:26:27.712Z,29.54
2017-08-15T08:27:38.171Z,29.55
2017-08-15T08:28:48.544Z,29.6
2017-08-15T08:29:58.945Z,29.72
2017-08-15T08:31:09.355Z,29.72
2017-08-15T08:32:19.778Z,29.67
2017-08-15T08:33:30.162Z,29.61
2017-08-15T08:34:40.526Z,29.7
2017-08-15T08:35:50.278Z,29.77
2017-08-15T08:37:00.785Z,29.79
2017-08-15T08:38:11.199Z,29.88
2017-08-15T08:39:21.567Z,29.92
2017-08-15T08:40:31.913Z,29.92
2017-08-15T08:41:42.296Z,29.92
2017-08-15T08:42:52.688Z,29.95
2017-08-15T08:44:03.091Z,29.95
2017-08-15T08:45:13.143Z,30
2017-08-15T08:46:23.562Z,30.03
2017-08-15T08:47:33.929Z,30.02
2017-08-15T08:48:48.895Z,30.13
2017-08-15T08:49:59.344Z,30.04
2017-08-15T08:51:09.822Z,30.14
2017-08-15T08:52:20.212Z,30.16
2017-08-15T08:53:30.625Z,30.24
2017-08-15T08:54:41.000Z,30.28
2017-08-15T08:55:51.438Z,30.31
2017-08-15T08:57:01.186Z,30.39
2017-08-15T08:58:11.593Z,30.42
2017-08-15T08:59:21.692Z,30.47
2017-08-15T09:00:32.060Z,30.48
2017-08-15T09:01:42.502Z,30.34
2017-08-15T09:02:52.903Z,30.47
2017-08-15T09:04:02.664Z,30.47
2017-08-15T09:05:13.454Z,30.49
2017-08-15T09:06:24.076Z,30.64
2017-08-15T09:07:34.554Z,30.75
2017-08-15T09:08:44.584Z,30.85
2017-08-15T09:09:54.987Z,30.89
2017-08-15T09:11:05.343Z,30.96
2017-08-15T09:12:15.741Z,30.99
2017-08-15T09:13:26.202Z,31.1
2017-08-15T09:14:36.576Z,31.18
2017-08-15T09:15:46.319Z,31.23
2017-08-15T09:16:56.715Z,31.28
2017-08-15T09:18:06.795Z,31.4
2017-08-15T09:19:20.476Z,31.4
2017-08-15T09:20:30.846Z,31.45
2017-08-15T09:21:41.241Z,31.49
2017-08-15T09:22:51.603Z,31.47
2017-08-15T09:24:01.682Z,31.52
2017-08-15T09:25:11.510Z,31.53
2017-08-15T09:26:23.984Z,31.59
2017-08-15T09:27:34.044Z,31.62
2017-08-15T09:28:44.464Z,31.62
2017-08-15T09:29:54.833Z,31.7
2017-08-15T09:31:05.238Z,31.72
2017-08-15T09:32:15.684Z,31.71
2017-08-15T09:33:26.420Z,31.75
2017-08-15T09:34:36.819Z,31.82
2017-08-15T09:35:48.714Z,31.82
2017-08-15T09:36:59.176Z,31.78
2017-08-15T09:38:09.575Z,31.78
2017-08-15T09:39:19.639Z,31.9
2017-08-15T09:40:29.742Z,31.9
2017-08-15T09:41:39.874Z,31.87
2017-08-15T09:42:50.382Z,31.91
2017-08-15T09:44:00.430Z,31.93
2017-08-15T09:45:10.800Z,31.97
2017-08-15T09:46:21.223Z,31.95
2017-08-15T09:47:31.342Z,32
2017-08-15T09:48:41.811Z,32.06
2017-08-15T09:49:51.950Z,32.13
2017-08-15T09:51:02.076Z,32.17
2017-08-15T09:52:11.820Z,32.25
2017-08-15T09:53:21.559Z,32.24
2017-08-15T09:54:32.087Z,32.27
2017-08-15T09:55:42.193Z,32.35
2017-08-15T09:56:52.576Z,32.43
2017-08-15T09:58:02.952Z,32.47
2017-08-15T09:59:13.011Z,32.52
2017-08-15T10:00:23.427Z,32.5
2017-08-15T10:01:33.807Z,32.56
2017-08-15T10:02:44.156Z,32.45
2017-08-15T10:03:54.522Z,32.62
2017-08-15T10:05:04.902Z,32.68
2017-08-15T10:06:15.321Z,32.64
2017-08-15T10:07:25.674Z,32.69
2017-08-15T10:08:35.722Z,32.69
2017-08-15T10:09:46.104Z,32.71
2017-08-15T10:10:56.520Z,32.74
2017-08-15T10:12:06.939Z,32.75
2017-08-15T10:13:17.299Z,32.8
2017-08-15T10:14:27.442Z,32.89
2017-08-15T10:15:37.814Z,32.94
2017-08-15T10:16:48.177Z,32.99
2017-08-15T10:17:58.271Z,33.02
2017-08-15T10:19:07.995Z,33.12
2017-08-15T10:20:18.439Z,33.29
2017-08-15T10:21:28.873Z,33.29
2017-08-15T10:22:39.265Z,33.23
2017-08-15T10:23:49.696Z,33.26
2017-08-15T10:24:59.750Z,33.31
2017-08-15T10:26:11.138Z,33.39
2017-08-15T10:27:22.166Z,33.37
2017-08-15T10:28:32.524Z,33.41
2017-08-15T10:29:42.984Z,33.5
2017-08-15T10:30:56.539Z,33.44
2017-08-15T10:32:06.961Z,33.41
2017-08-15T10:33:17.352Z,33.46
2017-08-15T10:34:27.436Z,33.5
2017-08-15T10:35:37.233Z,33.52
2017-08-15T10:36:47.298Z,33.59
2017-08-15T10:37:57.662Z,33.61
2017-08-15T10:39:08.035Z,33.58
2017-08-15T10:40:18.082Z,33.63
2017-08-15T10:41:28.181Z,33.63
2017-08-15T10:42:38.634Z,33.69
2017-08-15T10:43:49.021Z,33.81
2017-08-15T10:44:59.417Z,33.89
2017-08-15T10:46:09.792Z,33.87
2017-08-15T10:47:20.090Z,33.97
2017-08-15T10:48:30.465Z,34.05
2017-08-15T10:49:40.552Z,34.1
2017-08-15T10:50:51.211Z,34.11
2017-08-15T10:52:01.259Z,34.18
2017-08-15T10:53:11.713Z,34.14
2017-08-15T10:54:21.803Z,34.19
2017-08-15T10:55:31.884Z,34.12
2017-08-15T10:56:42.327Z,34.14
2017-08-15T10:57:52.698Z,34.17
2017-08-15T10:59:03.992Z,34.24
2017-08-15T11:00:14.035Z,34.12
2017-08-15T11:01:24.412Z,34.26
2017-08-15T11:02:33.525Z,34.15
2017-08-15T11:03:43.891Z,34.21
2017-08-15T11:04:54.019Z,34.22
2017-08-15T11:06:04.049Z,34.18
2017-08-15T11:07:14.418Z,34.24
2017-08-15T11:08:24.857Z,34.33
2017-08-15T11:09:35.285Z,34.3
2017-08-15T11:10:45.698Z,34.36
2017-08-15T11:11:55.784Z,34.39
2017-08-15T11:13:05.837Z,34.33
2017-08-15T11:14:16.210Z,34.4
2017-08-15T11:15:26.577Z,34.54
2017-08-15T11:16:36.720Z,34.54
2017-08-15T11:17:47.100Z,34.69
2017-08-15T11:18:57.463Z,34.83
2017-08-15T11:20:07.815Z,34.79
2017-08-15T11:21:18.199Z,34.83
2017-08-15T11:22:28.625Z,35.02
2017-08-15T11:23:38.987Z,35.11
2017-08-15T11:24:49.347Z,35.15
2017-08-15T11:25:59.716Z,35.23
2017-08-15T11:27:09.787Z,35.26
2017-08-15T11:28:19.896Z,35.33
2017-08-15T11:29:29.950Z,35.31
2017-08-15T11:30:40.015Z,35.31
2017-08-15T11:31:50.049Z,35.28
2017-08-15T11:33:00.093Z,35.35
2017-08-15T11:34:10.188Z,35.4
2017-08-15T11:35:23.210Z,35.43
2017-08-15T11:36:33.577Z,35.47
2017-08-15T11:37:43.319Z,35.52
2017-08-15T11:38:55.983Z,35.57
2017-08-15T11:40:06.080Z,35.57
2017-08-15T11:41:16.447Z,35.53
2017-08-15T11:42:26.491Z,35.58
2017-08-15T11:43:40.901Z,35.57
2017-08-15T11:44:51.301Z,35.68
2017-08-15T11:46:01.731Z,35.62
2017-08-15T11:47:11.802Z,35.71
2017-08-15T11:48:22.190Z,35.79
2017-08-15T11:49:32.237Z,35.82
2017-08-15T11:50:42.608Z,35.94
2017-08-15T11:51:52.432Z,35.96
2017-08-15T11:53:02.802Z,35.92
2017-08-15T11:54:13.163Z,35.94
2017-08-15T11:55:28.675Z,35.99
2017-08-15T11:56:39.068Z,35.94
2017-08-15T11:57:49.483Z,35.98
2017-08-15T11:58:59.261Z,36.15
2017-08-15T12:00:09.611Z,36.12
2017-08-15T12:01:19.987Z,36.24
2017-08-15T12:02:30.359Z,36.24
2017-08-15T12:03:40.776Z,36.24
2017-08-15T12:04:51.143Z,36.21
2017-08-15T12:06:03.957Z,36.12
2017-08-15T12:07:14.319Z,36.12
2017-08-15T12:08:24.672Z,36.09
2017-08-15T12:09:35.061Z,36.02
2017-08-15T12:10:45.149Z,35.94
2017-08-15T12:11:55.530Z,35.87
2017-08-15T12:13:05.894Z,35.8
2017-08-15T12:14:19.056Z,35.82
2017-08-15T12:15:28.845Z,35.8
2017-08-15T12:16:39.226Z,35.72
2017-08-15T12:17:49.637Z,35.71
2017-08-15T12:18:59.996Z,35.82
2017-08-15T12:20:10.073Z,35.82
2017-08-15T12:21:20.522Z,35.79
2017-08-15T12:22:34.253Z,35.86
2017-08-15T12:23:44.614Z,35.9
2017-08-15T12:24:54.416Z,36.01
2017-08-15T12:26:04.483Z,36.06
2017-08-15T12:27:14.894Z,36.08
2017-08-15T12:28:25.282Z,36.18
2017-08-15T12:29:38.153Z,36.22
2017-08-15T12:30:48.204Z,36.21
2017-08-15T12:31:58.614Z,36.28
2017-08-15T12:33:09.042Z,36.28
2017-08-15T12:34:19.095Z,36.18
2017-08-15T12:35:29.496Z,36.21
2017-08-15T12:36:39.938Z,36.05
2017-08-15T12:37:50.361Z,36.05
2017-08-15T12:39:00.785Z,36.12
2017-08-15T12:40:11.240Z,35.95
2017-08-15T12:41:21.647Z,35.9
2017-08-15T12:42:32.021Z,36.01
2017-08-15T12:43:42.410Z,35.89
2017-08-15T12:44:52.834Z,35.87
2017-08-15T12:46:03.205Z,35.82
2017-08-15T12:47:13.266Z,35.68
2017-08-15T12:48:23.640Z,35.64
2017-08-15T12:49:34.082Z,35.61
2017-08-15T12:50:44.547Z,35.62
2017-08-15T12:51:55.935Z,35.6
2017-08-15T12:53:06.388Z,35.62
2017-08-15T12:54:16.757Z,35.58
2017-08-15T12:55:27.125Z,35.6
2017-08-15T12:56:37.573Z,35.62
2017-08-15T12:57:47.996Z,35.62
2017-08-15T12:58:58.061Z,35.68
2017-08-15T13:00:08.109Z,35.67
2017-08-15T13:01:18.493Z,35.71
2017-08-15T13:02:28.596Z,35.67
2017-08-15T13:03:43.368Z,35.72
2017-08-15T13:04:53.782Z,35.69
2017-08-15T13:06:04.244Z,35.74
2017-08-15T13:07:14.649Z,35.87
2017-08-15T13:08:24.750Z,35.94
2017-08-15T13:09:35.180Z,35.9
2017-08-15T13:10:45.258Z,35.87
2017-08-15T13:11:55.625Z,35.9
2017-08-15T13:13:06.047Z,35.84
2017-08-15T13:14:16.208Z,35.84
2017-08-15T13:15:26.634Z,35.79
2017-08-15T13:16:38.192Z,35.83
2017-08-15T13:17:52.229Z,35.77
2017-08-15T13:19:02.630Z,35.83
2017-08-15T13:20:13.125Z,35.9
2017-08-15T13:21:25.137Z,35.99
2017-08-15T13:22:35.511Z,35.94
2017-08-15T13:23:45.556Z,35.95
2017-08-15T13:24:55.633Z,35.94
2017-08-15T13:26:06.049Z,35.94
2017-08-15T13:27:16.429Z,35.95
2017-08-15T13:28:26.179Z,35.95
2017-08-15T13:29:36.239Z,35.95
2017-08-15T13:30:45.976Z,35.92
2017-08-15T13:31:56.390Z,35.95
2017-08-15T13:33:10.920Z,35.84
2017-08-15T13:34:21.299Z,35.83
2017-08-15T13:35:31.350Z,35.76
2017-08-15T13:36:41.747Z,35.74
2017-08-15T13:37:54.481Z,35.69
2017-08-15T13:39:04.605Z,35.65
2017-08-15T13:40:15.021Z,35.71
2017-08-15T13:41:25.375Z,35.76
2017-08-15T13:42:35.474Z,35.65
2017-08-15T13:43:45.924Z,35.55
2017-08-15T13:44:56.294Z,35.58
2017-08-15T13:46:09.188Z,35.71
2017-08-15T13:47:18.970Z,35.67
2017-08-15T13:48:29.366Z,35.67
2017-08-15T13:49:39.781Z,35.76
2017-08-15T13:50:50.715Z,35.83
2017-08-15T13:52:01.095Z,35.8
2017-08-15T13:53:10.861Z,35.69
2017-08-15T13:54:21.295Z,35.68
2017-08-15T13:55:31.820Z,35.76
2017-08-15T13:56:42.215Z,35.76
2017-08-15T13:57:52.631Z,35.8
2017-08-15T13:59:02.677Z,35.77
2017-08-15T14:00:13.091Z,35.82
2017-08-15T14:01:23.201Z,35.82
2017-08-15T14:02:33.269Z,35.82
2017-08-15T14:03:43.634Z,35.82
2017-08-15T14:04:54.039Z,35.83
2017-08-15T14:06:04.398Z,35.84
2017-08-15T14:07:17.109Z,35.86
2017-08-15T14:08:27.158Z,35.84
2017-08-15T14:09:37.622Z,35.77
2017-08-15T14:10:48.049Z,35.76
2017-08-15T14:11:58.089Z,35.8
2017-08-15T14:13:08.505Z,35.86
2017-08-15T14:14:18.652Z,35.8
2017-08-15T14:15:28.711Z,35.65
2017-08-15T14:16:39.092Z,35.61
2017-08-15T14:17:49.474Z,35.68
2017-08-15T14:18:59.944Z,35.62
2017-08-15T14:20:10.011Z,35.58
2017-08-15T14:21:20.050Z,35.52
2017-08-15T14:22:30.417Z,35.62
2017-08-15T14:23:40.796Z,35.55
2017-08-15T14:24:50.904Z,35.57
2017-08-15T14:26:00.953Z,35.57
2017-08-15T14:27:11.423Z,35.67
2017-08-15T14:28:21.843Z,35.57
2017-08-15T14:29:31.957Z,35.55
2017-08-15T14:30:42.440Z,35.5
2017-08-15T14:31:52.860Z,35.55
2017-08-15T14:33:03.292Z,35.57
2017-08-15T14:34:13.711Z,35.55
2017-08-15T14:35:24.081Z,35.46
2017-08-15T14:36:34.572Z,35.57
2017-08-15T14:37:44.943Z,35.42
2017-08-15T14:38:55.328Z,35.43
2017-08-15T14:40:05.375Z,35.42
2017-08-15T14:41:15.827Z,35.43
2017-08-15T14:42:25.946Z,35.45
2017-08-15T14:43:36.352Z,35.43
2017-08-15T14:44:47.909Z,35.43
2017-08-15T14:45:58.278Z,35.5
2017-08-15T14:47:08.643Z,35.5
2017-08-15T14:48:19.082Z,35.43
2017-08-15T14:49:29.825Z,35.4
2017-08-15T14:50:40.265Z,35.5
2017-08-15T14:51:51.187Z,35.43
2017-08-15T14:53:01.569Z,35.43
2017-08-15T14:54:11.688Z,35.4
2017-08-15T14:55:22.053Z,35.33
2017-08-15T14:56:32.421Z,35.38
2017-08-15T14:57:42.858Z,35.31
2017-08-15T14:58:53.263Z,35.28
2017-08-15T15:00:03.428Z,35.24
2017-08-15T15:01:13.860Z,35.24
2017-08-15T15:02:24.213Z,35.34
2017-08-15T15:03:34.589Z,35.38
2017-08-15T15:04:44.337Z,35.34
2017-08-15T15:05:54.742Z,35.28
2017-08-15T15:07:05.102Z,35.3
2017-08-15T15:08:15.708Z,35.24
2017-08-15T15:09:25.760Z,35.26
2017-08-15T15:10:35.796Z,35.21
2017-08-15T15:11:46.230Z,35.27
2017-08-15T15:12:56.618Z,35.23
2017-08-15T15:14:06.667Z,35.2
2017-08-15T15:15:17.097Z,35.12
2017-08-15T15:16:27.465Z,35.15
2017-08-15T15:17:37.566Z,35.15
2017-08-15T15:18:47.958Z,35.09
2017-08-15T15:19:58.055Z,35.11
2017-08-15T15:21:08.430Z,35.12
2017-08-15T15:22:18.474Z,34.94
2017-08-15T15:23:28.891Z,34.94
2017-08-15T15:24:39.254Z,34.94
2017-08-15T15:25:49.624Z,34.91
2017-08-15T15:27:00.007Z,34.96
2017-08-15T15:28:10.391Z,34.96
2017-08-15T15:29:20.794Z,35.01
2017-08-15T15:30:32.923Z,34.94
2017-08-15T15:31:43.325Z,34.86
2017-08-15T15:32:53.699Z,34.83
2017-08-15T15:34:04.067Z,34.86
2017-08-15T15:35:14.494Z,34.83
2017-08-15T15:36:24.870Z,34.78
2017-08-15T15:37:34.628Z,34.72
2017-08-15T15:38:45.002Z,34.71
2017-08-15T15:39:55.365Z,34.67
2017-08-15T15:41:05.477Z,34.66